sensor_id;sensor_type;location;lat;lon;timestamp;pressure;altitude;pressure_sealevel;temperature
9119;BMP180;4594;50.994;7.126;2023-03-11T00:00:16;99548.00;;;7.40
9119;BMP180;4594;50.994;7.126;2023-03-11T00:02:49;99556.00;;;7.40
9119;BMP180;4594;50.994;7.126;2023-03-11T00:05:23;99551.00;;;7.40
9119;BMP180;4594;50.994;7.126;2023-03-11T00:07:49;99563.00;;;7.40
9119;BMP180;4594;50.994;7.126;2023-03-11T00:10:22;99580.00;;;7.40
9119;BMP180;4594;50.994;7.126;2023-03-11T00:12:47;99574.00;;;7.40
9119;BMP180;4594;50.994;7.126;2023-03-11T00:15:13;99568.00;;;7.40
9119;BMP180;4594;50.994;7.126;2023-03-11T00:17:39;99578.00;;;7.40
9119;BMP180;4594;50.994;7.126;2023-03-11T00:20:07;99562.00;;;7.40
9119;BMP180;4594;50.994;7.126;2023-03-11T00:22:39;99577.00;;;7.40
9119;BMP180;4594;50.994;7.126;2023-03-11T00:25:05;99586.00;;;7.40
9119;BMP180;4594;50.994;7.126;2023-03-11T00:27:31;99576.00;;;7.40
9119;BMP180;4594;50.994;7.126;2023-03-11T00:29:56;99592.00;;;7.40
9119;BMP180;4594;50.994;7.126;2023-03-11T00:32:22;99581.00;;;7.40
9119;BMP180;4594;50.994;7.126;2023-03-11T00:34:48;99602.00;;;7.40
9119;BMP180;4594;50.994;7.126;2023-03-11T00:37:14;99572.00;;;7.40
9119;BMP180;4594;50.994;7.126;2023-03-11T00:39:40;99597.00;;;7.30
9119;BMP180;4594;50.994;7.126;2023-03-11T00:42:05;99602.00;;;7.30
9119;BMP180;4594;50.994;7.126;2023-03-11T00:44:32;99609.00;;;7.30
9119;BMP180;4594;50.994;7.126;2023-03-11T00:46:57;99604.00;;;7.40
9119;BMP180;4594;50.994;7.126;2023-03-11T00:49:23;99620.00;;;7.40
9119;BMP180;4594;50.994;7.126;2023-03-11T00:51:49;99618.00;;;7.40
9119;BMP180;4594;50.994;7.126;2023-03-11T00:54:14;99608.00;;;7.40
9119;BMP180;4594;50.994;7.126;2023-03-11T00:56:40;99619.00;;;7.40
9119;BMP180;4594;50.994;7.126;2023-03-11T00:59:06;99619.00;;;7.40
9119;BMP180;4594;50.994;7.126;2023-03-11T01:01:32;99610.00;;;7.40
9119;BMP180;4594;50.994;7.126;2023-03-11T01:03:57;99617.00;;;7.40
9119;BMP180;4594;50.994;7.126;2023-03-11T01:06:23;99624.00;;;7.40
9119;BMP180;4594;50.994;7.126;2023-03-11T01:08:48;99628.00;;;7.40
9119;BMP180;4594;50.994;7.126;2023-03-11T01:11:14;99646.00;;;7.40
9119;BMP180;4594;50.994;7.126;2023-03-11T01:13:40;99639.00;;;7.40
9119;BMP180;4594;50.994;7.126;2023-03-11T01:16:06;99638.00;;;7.40
9119;BMP180;4594;50.994;7.126;2023-03-11T01:18:33;99653.00;;;7.40
9119;BMP180;4594;50.994;7.126;2023-03-11T01:20:59;99656.00;;;7.40
9119;BMP180;4594;50.994;7.126;2023-03-11T01:23:25;99651.00;;;7.40
9119;BMP180;4594;50.994;7.126;2023-03-11T01:25:51;99642.00;;;7.50
9119;BMP180;4594;50.994;7.126;2023-03-11T01:28:16;99660.00;;;7.50
9119;BMP180;4594;50.994;7.126;2023-03-11T01:30:43;99647.00;;;7.50
9119;BMP180;4594;50.994;7.126;2023-03-11T01:33:16;99660.00;;;7.50
9119;BMP180;4594;50.994;7.126;2023-03-11T01:35:43;99657.00;;;7.50
9119;BMP180;4594;50.994;7.126;2023-03-11T01:38:09;99639.00;;;7.50
9119;BMP180;4594;50.994;7.126;2023-03-11T01:40:45;99660.00;;;7.40
9119;BMP180;4594;50.994;7.126;2023-03-11T01:46:25;99673.00;;;7.40
9119;BMP180;4594;50.994;7.126;2023-03-11T01:49:00;99659.00;;;7.40
9119;BMP180;4594;50.994;7.126;2023-03-11T01:51:33;99663.00;;;7.40
9119;BMP180;4594;50.994;7.126;2023-03-11T01:54:20;99679.00;;;7.40
9119;BMP180;4594;50.994;7.126;2023-03-11T01:56:49;99670.00;;;7.40
9119;BMP180;4594;50.994;7.126;2023-03-11T01:59:22;99666.00;;;7.40
9119;BMP180;4594;50.994;7.126;2023-03-11T02:02:08;99669.00;;;7.40
9119;BMP180;4594;50.994;7.126;2023-03-11T02:04:39;99667.00;;;7.40
9119;BMP180;4594;50.994;7.126;2023-03-11T02:07:07;99674.00;;;7.40
9119;BMP180;4594;50.994;7.126;2023-03-11T02:09:33;99667.00;;;7.40
9119;BMP180;4594;50.994;7.126;2023-03-11T02:11:59;99690.00;;;7.40
9119;BMP180;4594;50.994;7.126;2023-03-11T02:14:28;99658.00;;;7.40
9119;BMP180;4594;50.994;7.126;2023-03-11T02:16:56;99675.00;;;7.40
9119;BMP180;4594;50.994;7.126;2023-03-11T02:22:24;99688.00;;;7.40
9119;BMP180;4594;50.994;7.126;2023-03-11T02:27:48;99690.00;;;7.40
9119;BMP180;4594;50.994;7.126;2023-03-11T02:30:16;99664.00;;;7.40
9119;BMP180;4594;50.994;7.126;2023-03-11T02:32:45;99694.00;;;7.40
9119;BMP180;4594;50.994;7.126;2023-03-11T02:35:14;99690.00;;;7.40
9119;BMP180;4594;50.994;7.126;2023-03-11T02:37:50;99685.00;;;7.40
9119;BMP180;4594;50.994;7.126;2023-03-11T02:42:54;99691.00;;;7.40
9119;BMP180;4594;50.994;7.126;2023-03-11T02:45:25;99696.00;;;7.40
9119;BMP180;4594;50.994;7.126;2023-03-11T02:47:53;99700.00;;;7.40
9119;BMP180;4594;50.994;7.126;2023-03-11T02:50:21;99708.00;;;7.40
9119;BMP180;4594;50.994;7.126;2023-03-11T02:52:50;99698.00;;;7.40
9119;BMP180;4594;50.994;7.126;2023-03-11T02:55:17;99707.00;;;7.40
9119;BMP180;4594;50.994;7.126;2023-03-11T02:57:46;99699.00;;;7.50
9119;BMP180;4594;50.994;7.126;2023-03-11T03:00:14;99707.00;;;7.50
9119;BMP180;4594;50.994;7.126;2023-03-11T03:02:43;99714.00;;;7.40
9119;BMP180;4594;50.994;7.126;2023-03-11T03:05:10;99713.00;;;7.40
9119;BMP180;4594;50.994;7.126;2023-03-11T03:07:36;99716.00;;;7.40
9119;BMP180;4594;50.994;7.126;2023-03-11T03:10:04;99719.00;;;7.40
9119;BMP180;4594;50.994;7.126;2023-03-11T03:12:31;99722.00;;;7.40
9119;BMP180;4594;50.994;7.126;2023-03-11T03:14:56;99699.00;;;7.40
9119;BMP180;4594;50.994;7.126;2023-03-11T03:17:23;99723.00;;;7.40
9119;BMP180;4594;50.994;7.126;2023-03-11T03:19:49;99720.00;;;7.30
9119;BMP180;4594;50.994;7.126;2023-03-11T03:22:15;99716.00;;;7.30
9119;BMP180;4594;50.994;7.126;2023-03-11T03:24:40;99718.00;;;7.20
9119;BMP180;4594;50.994;7.126;2023-03-11T03:27:06;99716.00;;;7.20
9119;BMP180;4594;50.994;7.126;2023-03-11T03:29:32;99696.00;;;7.10
9119;BMP180;4594;50.994;7.126;2023-03-11T03:31:57;99708.00;;;7.00
9119;BMP180;4594;50.994;7.126;2023-03-11T03:34:23;99710.00;;;7.00
9119;BMP180;4594;50.994;7.126;2023-03-11T03:36:48;99722.00;;;6.90
9119;BMP180;4594;50.994;7.126;2023-03-11T03:39:14;99713.00;;;6.80
9119;BMP180;4594;50.994;7.126;2023-03-11T03:41:40;99725.00;;;6.70
9119;BMP180;4594;50.994;7.126;2023-03-11T03:44:06;99736.00;;;6.70
9119;BMP180;4594;50.994;7.126;2023-03-11T03:46:32;99744.00;;;6.60
9119;BMP180;4594;50.994;7.126;2023-03-11T03:48:58;99735.00;;;6.50
9119;BMP180;4594;50.994;7.126;2023-03-11T03:51:23;99747.00;;;6.40
9119;BMP180;4594;50.994;7.126;2023-03-11T03:53:49;99749.00;;;6.30
9119;BMP180;4594;50.994;7.126;2023-03-11T03:56:17;99748.00;;;6.30
9119;BMP180;4594;50.994;7.126;2023-03-11T03:58:43;99757.00;;;6.20
9119;BMP180;4594;50.994;7.126;2023-03-11T04:01:12;99755.00;;;6.10
9119;BMP180;4594;50.994;7.126;2023-03-11T04:03:38;99762.00;;;6.10
9119;BMP180;4594;50.994;7.126;2023-03-11T04:06:22;99761.00;;;6.00
9119;BMP180;4594;50.994;7.126;2023-03-11T04:08:51;99752.00;;;5.90
9119;BMP180;4594;50.994;7.126;2023-03-11T04:11:17;99761.00;;;5.80
9119;BMP180;4594;50.994;7.126;2023-03-11T04:13:43;99763.00;;;5.70
9119;BMP180;4594;50.994;7.126;2023-03-11T04:16:15;99767.00;;;5.70
9119;BMP180;4594;50.994;7.126;2023-03-11T04:18:41;99782.00;;;5.60
9119;BMP180;4594;50.994;7.126;2023-03-11T04:21:07;99780.00;;;5.60
9119;BMP180;4594;50.994;7.126;2023-03-11T04:23:33;99776.00;;;5.50
9119;BMP180;4594;50.994;7.126;2023-03-11T04:25:59;99787.00;;;5.40
9119;BMP180;4594;50.994;7.126;2023-03-11T04:28:25;99790.00;;;5.40
9119;BMP180;4594;50.994;7.126;2023-03-11T04:30:51;99792.00;;;5.30
9119;BMP180;4594;50.994;7.126;2023-03-11T04:33:17;99789.00;;;5.30
9119;BMP180;4594;50.994;7.126;2023-03-11T04:35:43;99797.00;;;5.20
9119;BMP180;4594;50.994;7.126;2023-03-11T04:38:08;99798.00;;;5.10
9119;BMP180;4594;50.994;7.126;2023-03-11T04:40:36;99801.00;;;5.10
9119;BMP180;4594;50.994;7.126;2023-03-11T04:43:03;99806.00;;;5.00
9119;BMP180;4594;50.994;7.126;2023-03-11T04:45:29;99804.00;;;5.00
9119;BMP180;4594;50.994;7.126;2023-03-11T04:47:55;99821.00;;;5.00
9119;BMP180;4594;50.994;7.126;2023-03-11T04:50:21;99822.00;;;4.90
9119;BMP180;4594;50.994;7.126;2023-03-11T04:52:47;99804.00;;;4.90
9119;BMP180;4594;50.994;7.126;2023-03-11T04:55:14;99808.00;;;4.90
9119;BMP180;4594;50.994;7.126;2023-03-11T04:57:41;99805.00;;;4.90
9119;BMP180;4594;50.994;7.126;2023-03-11T05:00:10;99818.00;;;4.90
9119;BMP180;4594;50.994;7.126;2023-03-11T05:02:37;99819.00;;;4.90
9119;BMP180;4594;50.994;7.126;2023-03-11T05:05:04;99812.00;;;4.90
9119;BMP180;4594;50.994;7.126;2023-03-11T05:07:30;99819.00;;;4.90
9119;BMP180;4594;50.994;7.126;2023-03-11T05:09:56;99821.00;;;4.90
9119;BMP180;4594;50.994;7.126;2023-03-11T05:12:22;99802.00;;;4.80
9119;BMP180;4594;50.994;7.126;2023-03-11T05:14:47;99809.00;;;4.80
9119;BMP180;4594;50.994;7.126;2023-03-11T05:17:13;99827.00;;;4.80
9119;BMP180;4594;50.994;7.126;2023-03-11T05:19:39;99826.00;;;4.80
9119;BMP180;4594;50.994;7.126;2023-03-11T05:22:06;99822.00;;;4.80
9119;BMP180;4594;50.994;7.126;2023-03-11T05:24:32;99830.00;;;4.80
9119;BMP180;4594;50.994;7.126;2023-03-11T05:26:58;99822.00;;;4.70
9119;BMP180;4594;50.994;7.126;2023-03-11T05:29:25;99837.00;;;4.70
9119;BMP180;4594;50.994;7.126;2023-03-11T05:31:51;99842.00;;;4.70
9119;BMP180;4594;50.994;7.126;2023-03-11T05:34:18;99830.00;;;4.70
9119;BMP180;4594;50.994;7.126;2023-03-11T05:36:44;99837.00;;;4.60
9119;BMP180;4594;50.994;7.126;2023-03-11T05:39:10;99846.00;;;4.60
9119;BMP180;4594;50.994;7.126;2023-03-11T05:41:36;99853.00;;;4.60
9119;BMP180;4594;50.994;7.126;2023-03-11T05:44:02;99858.00;;;4.60
9119;BMP180;4594;50.994;7.126;2023-03-11T05:46:28;99850.00;;;4.60
9119;BMP180;4594;50.994;7.126;2023-03-11T05:48:54;99840.00;;;4.60
9119;BMP180;4594;50.994;7.126;2023-03-11T05:51:20;99852.00;;;4.60
9119;BMP180;4594;50.994;7.126;2023-03-11T05:53:47;99850.00;;;4.60
9119;BMP180;4594;50.994;7.126;2023-03-11T05:56:15;99848.00;;;4.60
9119;BMP180;4594;50.994;7.126;2023-03-11T05:58:41;99867.00;;;4.50
9119;BMP180;4594;50.994;7.126;2023-03-11T06:01:12;99867.00;;;4.50
9119;BMP180;4594;50.994;7.126;2023-03-11T06:03:39;99871.00;;;4.50
9119;BMP180;4594;50.994;7.126;2023-03-11T06:06:07;99880.00;;;4.50
9119;BMP180;4594;50.994;7.126;2023-03-11T06:08:34;99864.00;;;4.50
9119;BMP180;4594;50.994;7.126;2023-03-11T06:11:09;99872.00;;;4.50
9119;BMP180;4594;50.994;7.126;2023-03-11T06:13:36;99875.00;;;4.50
9119;BMP180;4594;50.994;7.126;2023-03-11T06:16:03;99873.00;;;4.50
9119;BMP180;4594;50.994;7.126;2023-03-11T06:18:29;99870.00;;;4.60
9119;BMP180;4594;50.994;7.126;2023-03-11T06:20:58;99859.00;;;4.60
9119;BMP180;4594;50.994;7.126;2023-03-11T06:23:25;99883.00;;;4.60
9119;BMP180;4594;50.994;7.126;2023-03-11T06:26:00;99879.00;;;4.70
9119;BMP180;4594;50.994;7.126;2023-03-11T06:28:27;99878.00;;;4.80
9119;BMP180;4594;50.994;7.126;2023-03-11T06:30:54;99879.00;;;4.90
9119;BMP180;4594;50.994;7.126;2023-03-11T06:33:23;99894.00;;;5.00
9119;BMP180;4594;50.994;7.126;2023-03-11T06:35:57;99911.00;;;5.20
9119;BMP180;4594;50.994;7.126;2023-03-11T06:38:23;99917.00;;;5.40
9119;BMP180;4594;50.994;7.126;2023-03-11T06:40:49;99907.00;;;5.60
9119;BMP180;4594;50.994;7.126;2023-03-11T06:43:15;99890.00;;;5.70
9119;BMP180;4594;50.994;7.126;2023-03-11T06:45:41;99900.00;;;5.90
9119;BMP180;4594;50.994;7.126;2023-03-11T06:48:06;99913.00;;;6.00
9119;BMP180;4594;50.994;7.126;2023-03-11T06:50:33;99911.00;;;6.20
9119;BMP180;4594;50.994;7.126;2023-03-11T06:52:59;99918.00;;;6.30
9119;BMP180;4594;50.994;7.126;2023-03-11T06:55:26;99910.00;;;6.30
9119;BMP180;4594;50.994;7.126;2023-03-11T06:57:52;99914.00;;;6.40
9119;BMP180;4594;50.994;7.126;2023-03-11T07:00:18;99916.00;;;6.50
9119;BMP180;4594;50.994;7.126;2023-03-11T07:02:46;99912.00;;;6.60
9119;BMP180;4594;50.994;7.126;2023-03-11T07:05:12;99914.00;;;6.70
9119;BMP180;4594;50.994;7.126;2023-03-11T07:07:37;99943.00;;;6.80
9119;BMP180;4594;50.994;7.126;2023-03-11T07:10:04;99939.00;;;7.00
9119;BMP180;4594;50.994;7.126;2023-03-11T07:12:30;99957.00;;;7.10
9119;BMP180;4594;50.994;7.126;2023-03-11T07:14:58;99965.00;;;7.30
9119;BMP180;4594;50.994;7.126;2023-03-11T07:17:24;99971.00;;;7.60
9119;BMP180;4594;50.994;7.126;2023-03-11T07:19:50;99973.00;;;7.90
9119;BMP180;4594;50.994;7.126;2023-03-11T07:22:17;99986.00;;;8.40
9119;BMP180;4594;50.994;7.126;2023-03-11T07:24:47;99988.00;;;8.90
9119;BMP180;4594;50.994;7.126;2023-03-11T07:27:13;99986.00;;;9.30
9119;BMP180;4594;50.994;7.126;2023-03-11T07:29:39;99990.00;;;9.70
9119;BMP180;4594;50.994;7.126;2023-03-11T07:32:07;100004.00;;;10.10
9119;BMP180;4594;50.994;7.126;2023-03-11T07:34:33;100001.00;;;10.50
9119;BMP180;4594;50.994;7.126;2023-03-11T07:36:59;99999.00;;;11.00
9119;BMP180;4594;50.994;7.126;2023-03-11T07:39:25;100001.00;;;11.50
9119;BMP180;4594;50.994;7.126;2023-03-11T07:41:50;100021.00;;;11.80
9119;BMP180;4594;50.994;7.126;2023-03-11T07:44:17;100017.00;;;11.90
9119;BMP180;4594;50.994;7.126;2023-03-11T07:46:44;100019.00;;;12.30
9119;BMP180;4594;50.994;7.126;2023-03-11T07:49:10;100008.00;;;12.70
9119;BMP180;4594;50.994;7.126;2023-03-11T07:51:38;100020.00;;;12.90
9119;BMP180;4594;50.994;7.126;2023-03-11T07:54:05;100034.00;;;13.40
9119;BMP180;4594;50.994;7.126;2023-03-11T07:56:34;100041.00;;;13.80
9119;BMP180;4594;50.994;7.126;2023-03-11T07:59:02;100049.00;;;14.20
9119;BMP180;4594;50.994;7.126;2023-03-11T08:01:30;100053.00;;;14.70
9119;BMP180;4594;50.994;7.126;2023-03-11T08:04:03;100060.00;;;15.40
9119;BMP180;4594;50.994;7.126;2023-03-11T08:06:32;100064.00;;;16.00
9119;BMP180;4594;50.994;7.126;2023-03-11T08:09:00;100064.00;;;16.70
9119;BMP180;4594;50.994;7.126;2023-03-11T08:11:26;100058.00;;;17.30
9119;BMP180;4594;50.994;7.126;2023-03-11T08:13:52;100058.00;;;17.80
9119;BMP180;4594;50.994;7.126;2023-03-11T08:16:21;100061.00;;;18.30
9119;BMP180;4594;50.994;7.126;2023-03-11T08:18:49;100062.00;;;18.90
9119;BMP180;4594;50.994;7.126;2023-03-11T08:21:22;100060.00;;;19.40
9119;BMP180;4594;50.994;7.126;2023-03-11T08:23:49;100063.00;;;20.00
9119;BMP180;4594;50.994;7.126;2023-03-11T08:26:19;100064.00;;;20.50
9119;BMP180;4594;50.994;7.126;2023-03-11T08:28:47;100057.00;;;21.10
9119;BMP180;4594;50.994;7.126;2023-03-11T08:31:21;100064.00;;;21.60
9119;BMP180;4594;50.994;7.126;2023-03-11T08:33:50;100068.00;;;22.10
9119;BMP180;4594;50.994;7.126;2023-03-11T08:36:18;100056.00;;;22.50
9119;BMP180;4594;50.994;7.126;2023-03-11T08:38:44;100068.00;;;23.00
9119;BMP180;4594;50.994;7.126;2023-03-11T08:41:09;100077.00;;;23.40
9119;BMP180;4594;50.994;7.126;2023-03-11T08:43:35;100074.00;;;23.80
9119;BMP180;4594;50.994;7.126;2023-03-11T08:46:03;100084.00;;;24.10
9119;BMP180;4594;50.994;7.126;2023-03-11T08:48:31;100074.00;;;24.40
9119;BMP180;4594;50.994;7.126;2023-03-11T08:50:58;100075.00;;;24.80
9119;BMP180;4594;50.994;7.126;2023-03-11T08:53:24;100078.00;;;25.00
9119;BMP180;4594;50.994;7.126;2023-03-11T08:55:51;100074.00;;;25.20
9119;BMP180;4594;50.994;7.126;2023-03-11T08:58:18;100080.00;;;25.50
9119;BMP180;4594;50.994;7.126;2023-03-11T09:00:44;100075.00;;;25.80
9119;BMP180;4594;50.994;7.126;2023-03-11T09:03:11;100082.00;;;26.10
9119;BMP180;4594;50.994;7.126;2023-03-11T09:05:37;100084.00;;;26.40
9119;BMP180;4594;50.994;7.126;2023-03-11T09:08:03;100084.00;;;26.60
9119;BMP180;4594;50.994;7.126;2023-03-11T09:10:30;100102.00;;;26.70
9119;BMP180;4594;50.994;7.126;2023-03-11T09:12:55;100089.00;;;26.30
9119;BMP180;4594;50.994;7.126;2023-03-11T09:15:21;100102.00;;;26.20
9119;BMP180;4594;50.994;7.126;2023-03-11T09:17:47;100100.00;;;26.20
9119;BMP180;4594;50.994;7.126;2023-03-11T09:20:13;100089.00;;;26.30
9119;BMP180;4594;50.994;7.126;2023-03-11T09:22:39;100092.00;;;26.60
9119;BMP180;4594;50.994;7.126;2023-03-11T09:25:06;100113.00;;;26.40
9119;BMP180;4594;50.994;7.126;2023-03-11T09:27:32;100099.00;;;25.70
9119;BMP180;4594;50.994;7.126;2023-03-11T09:29:57;100093.00;;;25.60
9119;BMP180;4594;50.994;7.126;2023-03-11T09:32:23;100100.00;;;25.50
9119;BMP180;4594;50.994;7.126;2023-03-11T09:34:49;100089.00;;;25.00
9119;BMP180;4594;50.994;7.126;2023-03-11T09:37:14;100084.00;;;24.30
9119;BMP180;4594;50.994;7.126;2023-03-11T09:39:40;100083.00;;;23.70
9119;BMP180;4594;50.994;7.126;2023-03-11T09:43:02;100074.00;;;23.80
9119;BMP180;4594;50.994;7.126;2023-03-11T09:45:33;100073.00;;;24.40
9119;BMP180;4594;50.994;7.126;2023-03-11T09:48:43;100083.00;;;25.20
9119;BMP180;4594;50.994;7.126;2023-03-11T09:51:27;100093.00;;;26.00
9119;BMP180;4594;50.994;7.126;2023-03-11T09:54:09;100110.00;;;26.70
9119;BMP180;4594;50.994;7.126;2023-03-11T09:56:37;100112.00;;;26.50
9119;BMP180;4594;50.994;7.126;2023-03-11T09:59:28;100103.00;;;26.90
9119;BMP180;4594;50.994;7.126;2023-03-11T10:01:54;100131.00;;;27.60
9119;BMP180;4594;50.994;7.126;2023-03-11T10:05:12;100141.00;;;27.40
9119;BMP180;4594;50.994;7.126;2023-03-11T10:07:22;100145.00;;;26.70
9119;BMP180;4594;50.994;7.126;2023-03-11T10:09:56;100136.00;;;26.00
9119;BMP180;4594;50.994;7.126;2023-03-11T10:21:35;100159.00;;;25.30
9119;BMP180;4594;50.994;7.126;2023-03-11T10:24:37;100154.00;;;24.60
9119;BMP180;4594;50.994;7.126;2023-03-11T10:27:23;100165.00;;;23.80
9119;BMP180;4594;50.994;7.126;2023-03-11T10:32:49;100157.00;;;22.40
9119;BMP180;4594;50.994;7.126;2023-03-11T10:35:36;100154.00;;;21.90
9119;BMP180;4594;50.994;7.126;2023-03-11T10:38:27;100139.00;;;22.00
9119;BMP180;4594;50.994;7.126;2023-03-11T10:41:00;100152.00;;;22.50
9119;BMP180;4594;50.994;7.126;2023-03-11T10:43:36;100139.00;;;23.00
9119;BMP180;4594;50.994;7.126;2023-03-11T10:46:23;100151.00;;;23.30
9119;BMP180;4594;50.994;7.126;2023-03-11T10:48:49;100156.00;;;23.40
9119;BMP180;4594;50.994;7.126;2023-03-11T10:51:19;100160.00;;;23.20
9119;BMP180;4594;50.994;7.126;2023-03-11T10:53:57;100175.00;;;22.90
9119;BMP180;4594;50.994;7.126;2023-03-11T10:56:37;100179.00;;;22.50
9119;BMP180;4594;50.994;7.126;2023-03-11T10:59:21;100168.00;;;22.20
9119;BMP180;4594;50.994;7.126;2023-03-11T11:02:07;100173.00;;;21.90
9119;BMP180;4594;50.994;7.126;2023-03-11T11:04:43;100151.00;;;21.50
9119;BMP180;4594;50.994;7.126;2023-03-11T11:07:34;100163.00;;;21.10
9119;BMP180;4594;50.994;7.126;2023-03-11T11:10:21;100151.00;;;20.60
9119;BMP180;4594;50.994;7.126;2023-03-11T11:12:57;100137.00;;;20.20
9119;BMP180;4594;50.994;7.126;2023-03-11T11:18:05;100136.00;;;19.60
9119;BMP180;4594;50.994;7.126;2023-03-11T11:20:33;100122.00;;;19.30
9119;BMP180;4594;50.994;7.126;2023-03-11T11:23:02;100142.00;;;19.10
9119;BMP180;4594;50.994;7.126;2023-03-11T11:25:36;100142.00;;;18.90
9119;BMP180;4594;50.994;7.126;2023-03-11T11:28:19;100107.00;;;18.70
9119;BMP180;4594;50.994;7.126;2023-03-11T11:31:01;100147.00;;;18.50
9119;BMP180;4594;50.994;7.126;2023-03-11T11:33:32;100149.00;;;18.30
9119;BMP180;4594;50.994;7.126;2023-03-11T11:36:05;100148.00;;;18.10
9119;BMP180;4594;50.994;7.126;2023-03-11T11:38:36;100123.00;;;18.00
9119;BMP180;4594;50.994;7.126;2023-03-11T11:41:04;100136.00;;;17.70
9119;BMP180;4594;50.994;7.126;2023-03-11T11:43:51;100146.00;;;17.50
9119;BMP180;4594;50.994;7.126;2023-03-11T11:46:41;100135.00;;;17.30
9119;BMP180;4594;50.994;7.126;2023-03-11T11:49:24;100159.00;;;17.00
9119;BMP180;4594;50.994;7.126;2023-03-11T11:52:05;100168.00;;;16.80
9119;BMP180;4594;50.994;7.126;2023-03-11T11:54:48;100162.00;;;16.70
9119;BMP180;4594;50.994;7.126;2023-03-11T11:57:19;100175.00;;;16.60
9119;BMP180;4594;50.994;7.126;2023-03-11T11:59:47;100160.00;;;16.40
9119;BMP180;4594;50.994;7.126;2023-03-11T12:04:50;100166.00;;;16.10
9119;BMP180;4594;50.994;7.126;2023-03-11T12:07:58;100153.00;;;15.90
9119;BMP180;4594;50.994;7.126;2023-03-11T12:10:44;100124.00;;;15.90
9119;BMP180;4594;50.994;7.126;2023-03-11T12:14:24;100147.00;;;15.70
9119;BMP180;4594;50.994;7.126;2023-03-11T12:16:57;100143.00;;;15.70
9119;BMP180;4594;50.994;7.126;2023-03-11T12:27:50;100151.00;;;15.60
9119;BMP180;4594;50.994;7.126;2023-03-11T12:30:32;100154.00;;;15.60
9119;BMP180;4594;50.994;7.126;2023-03-11T12:33:30;100154.00;;;15.60
9119;BMP180;4594;50.994;7.126;2023-03-11T12:35:59;100109.00;;;15.60
9119;BMP180;4594;50.994;7.126;2023-03-11T12:38:38;100162.00;;;15.60
9119;BMP180;4594;50.994;7.126;2023-03-11T12:41:36;100161.00;;;15.60
9119;BMP180;4594;50.994;7.126;2023-03-11T12:44:27;100147.00;;;15.60
9119;BMP180;4594;50.994;7.126;2023-03-11T12:49:26;100156.00;;;15.60
9119;BMP180;4594;50.994;7.126;2023-03-11T12:54:41;100133.00;;;15.50
9119;BMP180;4594;50.994;7.126;2023-03-11T13:03:15;100148.00;;;15.30
9119;BMP180;4594;50.994;7.126;2023-03-11T13:06:26;100148.00;;;15.20
9119;BMP180;4594;50.994;7.126;2023-03-11T13:08:57;100147.00;;;15.10
9119;BMP180;4594;50.994;7.126;2023-03-11T13:14:31;100149.00;;;15.00
9119;BMP180;4594;50.994;7.126;2023-03-11T13:17:27;100147.00;;;14.90
9119;BMP180;4594;50.994;7.126;2023-03-11T13:19:57;100144.00;;;14.90
9119;BMP180;4594;50.994;7.126;2023-03-11T13:25:37;100129.00;;;14.90
9119;BMP180;4594;50.994;7.126;2023-03-11T13:31:41;100151.00;;;14.80
9119;BMP180;4594;50.994;7.126;2023-03-11T13:40:35;100151.00;;;14.80
9119;BMP180;4594;50.994;7.126;2023-03-11T13:43:18;100153.00;;;14.80
9119;BMP180;4594;50.994;7.126;2023-03-11T13:48:32;100147.00;;;14.60
9119;BMP180;4594;50.994;7.126;2023-03-11T13:51:10;100151.00;;;14.60
9119;BMP180;4594;50.994;7.126;2023-03-11T13:53:52;100139.00;;;14.40
9119;BMP180;4594;50.994;7.126;2023-03-11T13:56:29;100147.00;;;14.30
9119;BMP180;4594;50.994;7.126;2023-03-11T13:59:26;100146.00;;;14.10
9119;BMP180;4594;50.994;7.126;2023-03-11T14:02:10;100143.00;;;14.00
9119;BMP180;4594;50.994;7.126;2023-03-11T14:04:46;100141.00;;;13.90
9119;BMP180;4594;50.994;7.126;2023-03-11T14:07:22;100138.00;;;13.80
9119;BMP180;4594;50.994;7.126;2023-03-11T14:09:49;100131.00;;;13.60
9119;BMP180;4594;50.994;7.126;2023-03-11T14:12:14;100138.00;;;13.50
9119;BMP180;4594;50.994;7.126;2023-03-11T14:14:54;100153.00;;;13.40
9119;BMP180;4594;50.994;7.126;2023-03-11T14:17:23;100155.00;;;13.30
9119;BMP180;4594;50.994;7.126;2023-03-11T14:20:16;100147.00;;;13.20
9119;BMP180;4594;50.994;7.126;2023-03-11T14:22:48;100147.00;;;13.00
9119;BMP180;4594;50.994;7.126;2023-03-11T14:25:32;100145.00;;;12.90
9119;BMP180;4594;50.994;7.126;2023-03-11T14:28:04;100147.00;;;12.90
9119;BMP180;4594;50.994;7.126;2023-03-11T14:30:33;100158.00;;;12.80
9119;BMP180;4594;50.994;7.126;2023-03-11T14:33:22;100157.00;;;12.70
9119;BMP180;4594;50.994;7.126;2023-03-11T14:36:03;100155.00;;;12.70
9119;BMP180;4594;50.994;7.126;2023-03-11T14:38:32;100166.00;;;12.60
9119;BMP180;4594;50.994;7.126;2023-03-11T14:41:05;100149.00;;;12.50
9119;BMP180;4594;50.994;7.126;2023-03-11T14:43:36;100166.00;;;12.40
9119;BMP180;4594;50.994;7.126;2023-03-11T14:46:06;100147.00;;;12.40
9119;BMP180;4594;50.994;7.126;2023-03-11T14:48:39;100160.00;;;12.30
9119;BMP180;4594;50.994;7.126;2023-03-11T14:51:16;100163.00;;;12.30
9119;BMP180;4594;50.994;7.126;2023-03-11T14:54:04;100165.00;;;12.20
9119;BMP180;4594;50.994;7.126;2023-03-11T14:56:36;100174.00;;;12.10
9119;BMP180;4594;50.994;7.126;2023-03-11T14:59:09;100170.00;;;12.10
9119;BMP180;4594;50.994;7.126;2023-03-11T15:01:41;100161.00;;;12.00
9119;BMP180;4594;50.994;7.126;2023-03-11T15:06:42;100177.00;;;11.90
9119;BMP180;4594;50.994;7.126;2023-03-11T15:09:13;100161.00;;;11.80
9119;BMP180;4594;50.994;7.126;2023-03-11T15:11:52;100165.00;;;11.70
9119;BMP180;4594;50.994;7.126;2023-03-11T15:19:34;100174.00;;;11.50
9119;BMP180;4594;50.994;7.126;2023-03-11T15:22:26;100172.00;;;11.50
9119;BMP180;4594;50.994;7.126;2023-03-11T15:24:57;100162.00;;;11.40
9119;BMP180;4594;50.994;7.126;2023-03-11T15:27:36;100155.00;;;11.40
9119;BMP180;4594;50.994;7.126;2023-03-11T15:30:23;100169.00;;;11.40
9119;BMP180;4594;50.994;7.126;2023-03-11T15:32:49;100162.00;;;11.40
9119;BMP180;4594;50.994;7.126;2023-03-11T15:35:29;100160.00;;;11.40
9119;BMP180;4594;50.994;7.126;2023-03-11T15:38:21;100165.00;;;11.30
9119;BMP180;4594;50.994;7.126;2023-03-11T15:41:00;100167.00;;;11.40
9119;BMP180;4594;50.994;7.126;2023-03-11T15:43:31;100165.00;;;11.40
9119;BMP180;4594;50.994;7.126;2023-03-11T15:46:01;100154.00;;;11.40
9119;BMP180;4594;50.994;7.126;2023-03-11T15:48:28;100170.00;;;11.50
9119;BMP180;4594;50.994;7.126;2023-03-11T15:50:57;100155.00;;;11.50
9119;BMP180;4594;50.994;7.126;2023-03-11T15:53:26;100163.00;;;11.40
9119;BMP180;4594;50.994;7.126;2023-03-11T15:55:56;100164.00;;;11.40
9119;BMP180;4594;50.994;7.126;2023-03-11T15:58:22;100184.00;;;11.40
9119;BMP180;4594;50.994;7.126;2023-03-11T16:00:52;100193.00;;;11.50
9119;BMP180;4594;50.994;7.126;2023-03-11T16:03:19;100176.00;;;11.50
9119;BMP180;4594;50.994;7.126;2023-03-11T16:05:45;100182.00;;;11.50
9119;BMP180;4594;50.994;7.126;2023-03-11T16:08:11;100165.00;;;11.50
9119;BMP180;4594;50.994;7.126;2023-03-11T16:10:38;100164.00;;;11.50